GAL51T RKSI-KLAX
Flight info
| Callsign | GAL51T |
|---|---|
| Flight time | N/A |
| Altitude | 35000 |
| Route | EGOBA2Y EGOBA Y697 LANAT Y51 SAMON Y142 GTC Y512 ADNAP OTR7 EMRON DCT 41N160E 42N170E/N0496F370 42N180E 44N170W 46N160W 46N150W/N0481F390 43N140W 39N130W DCT DACEM DCT PAINT DCT PIRAT DCT BURGL IRNMN2 |
| Aircraft | A388/J-SADE2E3FGHIJ3J4J5M1RWXY/LB1D1 |
Departure
| Time | 2026-05-01 12:05 |
|---|---|
| Airport | Incheon International Airport (RKSI) |
Arrival
| Time | N/A |
|---|---|
| Airport | Los Angeles International Airport (KLAX) |
| Time | Latitude | Longitude | Altitude | Speed | Heading |
|---|---|---|---|---|---|
| 2026-05-01 11:32 | 37.46390 | 126.43157 | 37 ft | 0 kts | 69° |
| 2026-05-01 11:48 | 37.46389 | 126.43156 | 37 ft | 2 kts | 69° |
| 2026-05-01 11:48 | 37.46382 | 126.43126 | 16 ft | 4 kts | 80° |
| 2026-05-01 11:48 | 37.46380 | 126.43092 | 15 ft | 4 kts | 95° |
| 2026-05-01 11:49 | 37.46385 | 126.43059 | 35 ft | 4 kts | 113° |
| 2026-05-01 11:49 | 37.46398 | 126.43030 | 35 ft | 4 kts | 131° |
| 2026-05-01 11:49 | 37.46411 | 126.43015 | 35 ft | 4 kts | 144° |
| 2026-05-01 11:49 | 37.46428 | 126.43002 | 35 ft | 0 kts | 155° |
| 2026-05-01 11:52 | 37.46422 | 126.43005 | 34 ft | 2 kts | 155° |
| 2026-05-01 11:53 | 37.46396 | 126.43020 | 34 ft | 6 kts | 155° |
| 2026-05-01 11:53 | 37.46356 | 126.43043 | 37 ft | 7 kts | 155° |
| 2026-05-01 11:53 | 37.46307 | 126.43071 | 37 ft | 8 kts | 156° |
| 2026-05-01 11:53 | 37.46253 | 126.43102 | 37 ft | 9 kts | 156° |
| 2026-05-01 11:54 | 37.46192 | 126.43137 | 37 ft | 10 kts | 153° |
| 2026-05-01 11:54 | 37.46129 | 126.43185 | 37 ft | 11 kts | 144° |
| 2026-05-01 11:54 | 37.46066 | 126.43242 | 37 ft | 8 kts | 145° |
| 2026-05-01 11:54 | 37.46059 | 126.43248 | 37 ft | 1 kts | 145° |
| 2026-05-01 11:55 | 37.46043 | 126.43262 | 37 ft | 4 kts | 145° |
| 2026-05-01 11:55 | 37.46011 | 126.43290 | 37 ft | 7 kts | 144° |
| 2026-05-01 11:55 | 37.45970 | 126.43327 | 37 ft | 8 kts | 142° |
| 2026-05-01 11:55 | 37.45937 | 126.43382 | 37 ft | 7 kts | 102° |
| 2026-05-01 11:56 | 37.45949 | 126.43433 | 37 ft | 7 kts | 59° |
| 2026-05-01 11:56 | 37.45979 | 126.43491 | 37 ft | 9 kts | 55° |
| 2026-05-01 11:56 | 37.46019 | 126.43561 | 37 ft | 11 kts | 54° |
| 2026-05-01 11:56 | 37.46066 | 126.43645 | 37 ft | 13 kts | 54° |
| 2026-05-01 11:57 | 37.46122 | 126.43743 | 37 ft | 15 kts | 54° |
| 2026-05-01 11:57 | 37.46184 | 126.43854 | 37 ft | 17 kts | 54° |
| 2026-05-01 11:57 | 37.46254 | 126.43979 | 37 ft | 18 kts | 54° |
| 2026-05-01 11:57 | 37.46328 | 126.44110 | 37 ft | 17 kts | 54° |
| 2026-05-01 11:58 | 37.46400 | 126.44238 | 37 ft | 19 kts | 54° |
| 2026-05-01 11:58 | 37.46478 | 126.44377 | 37 ft | 20 kts | 54° |
| 2026-05-01 11:58 | 37.46546 | 126.44662 | 37 ft | 15 kts | 137° |
| 2026-05-01 11:59 | 37.46461 | 126.44742 | 37 ft | 15 kts | 144° |
| 2026-05-01 11:59 | 37.46373 | 126.44821 | 37 ft | 16 kts | 144° |
| 2026-05-01 11:59 | 37.46278 | 126.44905 | 37 ft | 17 kts | 144° |
| 2026-05-01 12:00 | 37.46077 | 126.45085 | 37 ft | 18 kts | 144° |
| 2026-05-01 12:00 | 37.45972 | 126.45179 | 37 ft | 19 kts | 144° |
| 2026-05-01 12:00 | 37.45752 | 126.45372 | 37 ft | 20 kts | 145° |
| 2026-05-01 12:01 | 37.45641 | 126.45473 | 37 ft | 20 kts | 144° |
| 2026-05-01 12:01 | 37.45527 | 126.45574 | 37 ft | 20 kts | 146° |
| 2026-05-01 12:01 | 37.45412 | 126.45675 | 37 ft | 20 kts | 144° |
| 2026-05-01 12:01 | 37.45317 | 126.45761 | 37 ft | 14 kts | 135° |
| 2026-05-01 12:02 | 37.45310 | 126.45858 | 37 ft | 12 kts | 59° |
| 2026-05-01 12:02 | 37.45351 | 126.45941 | 37 ft | 0 kts | 54° |
| 2026-05-01 12:02 | 37.45352 | 126.45943 | 37 ft | 1 kts | 54° |
| 2026-05-01 12:03 | 37.45363 | 126.45962 | 36 ft | 4 kts | 54° |
| 2026-05-01 12:03 | 37.45386 | 126.46004 | 36 ft | 7 kts | 54° |
| 2026-05-01 12:03 | 37.45424 | 126.46049 | 36 ft | 7 kts | 13° |
| 2026-05-01 12:03 | 37.45469 | 126.46039 | 35 ft | 7 kts | 334° |
| 2026-05-01 12:04 | 37.45512 | 126.46005 | 35 ft | 8 kts | 324° |
| 2026-05-01 12:04 | 37.45524 | 126.45994 | 34 ft | 0 kts | 324° |
| 2026-05-01 12:04 | 37.45627 | 126.45901 | 35 ft | 50 kts | 323° |
| 2026-05-01 12:04 | 37.46110 | 126.45473 | 37 ft | 116 kts | 324° |
| 2026-05-01 12:05 | 37.46902 | 126.44763 | 43 ft | 157 kts | 319° |
| 2026-05-01 12:05 | 37.48674 | 126.43207 | 1055 ft | 158 kts | 319° |
| 2026-05-01 12:05 | 37.49629 | 126.42378 | 1277 ft | 175 kts | 323° |
| 2026-05-01 12:06 | 37.50702 | 126.41520 | 1428 ft | 189 kts | 324° |
| 2026-05-01 12:06 | 37.51846 | 126.40612 | 1522 ft | 200 kts | 324° |
| 2026-05-01 12:06 | 37.53049 | 126.39646 | 1625 ft | 217 kts | 324° |
| 2026-05-01 12:06 | 37.54334 | 126.38604 | 2225 ft | 219 kts | 324° |
| 2026-05-01 12:07 | 37.55654 | 126.37585 | 2792 ft | 226 kts | 330° |
| 2026-05-01 12:07 | 37.57142 | 126.36859 | 3421 ft | 231 kts | 342° |
| 2026-05-01 12:07 | 37.58705 | 126.36343 | 4044 ft | 233 kts | 342° |
| 2026-05-01 12:07 | 37.60282 | 126.35792 | 4673 ft | 236 kts | 341° |
| 2026-05-01 12:08 | 37.61881 | 126.35296 | 5263 ft | 239 kts | 352° |
| 2026-05-01 12:08 | 37.63537 | 126.35599 | 5477 ft | 248 kts | 19° |
| 2026-05-01 12:08 | 37.64931 | 126.36932 | 5487 ft | 259 kts | 49° |
| 2026-05-01 12:08 | 37.65743 | 126.38994 | 5492 ft | 271 kts | 68° |
| 2026-05-01 12:09 | 37.66314 | 126.41337 | 5490 ft | 285 kts | 70° |
| 2026-05-01 12:09 | 37.66797 | 126.43787 | 5488 ft | 292 kts | 82° |
| 2026-05-01 12:09 | 37.66591 | 126.46350 | 5863 ft | 298 kts | 107° |
| 2026-05-01 12:09 | 37.65832 | 126.48788 | 6411 ft | 302 kts | 110° |
| 2026-05-01 12:10 | 37.65097 | 126.51271 | 7010 ft | 302 kts | 108° |
| 2026-05-01 12:10 | 37.63081 | 126.55926 | 8114 ft | 309 kts | 135° |
| 2026-05-01 12:10 | 37.61503 | 126.57719 | 8654 ft | 311 kts | 139° |
| 2026-05-01 12:11 | 37.58649 | 126.61850 | 9718 ft | 317 kts | 124° |
| 2026-05-01 12:11 | 37.57390 | 126.64144 | 10200 ft | 321 kts | 124° |
| 2026-05-01 12:11 | 37.56092 | 126.66501 | 10502 ft | 330 kts | 124° |
| 2026-05-01 12:12 | 37.54765 | 126.68898 | 10740 ft | 340 kts | 124° |
| 2026-05-01 12:12 | 37.53377 | 126.71393 | 10823 ft | 355 kts | 124° |
| 2026-05-01 12:12 | 37.51931 | 126.73985 | 11008 ft | 369 kts | 124° |
| 2026-05-01 12:12 | 37.50437 | 126.76654 | 11424 ft | 375 kts | 124° |
| 2026-05-01 12:13 | 37.48931 | 126.79342 | 11954 ft | 377 kts | 124° |
| 2026-05-01 12:13 | 37.47411 | 126.82053 | 12472 ft | 380 kts | 124° |
| 2026-05-01 12:13 | 37.45881 | 126.84783 | 12977 ft | 383 kts | 124° |
| 2026-05-01 12:13 | 37.44342 | 126.87526 | 13500 ft | 386 kts | 124° |
| 2026-05-01 12:14 | 37.42820 | 126.90308 | 13959 ft | 388 kts | 118° |
| 2026-05-01 12:14 | 37.41849 | 126.93457 | 14391 ft | 386 kts | 98° |
| 2026-05-01 12:14 | 37.41731 | 126.96798 | 14801 ft | 381 kts | 78° |
| 2026-05-01 12:14 | 37.42235 | 127.00021 | 15245 ft | 380 kts | 71° |
| 2026-05-01 12:15 | 37.42891 | 127.03248 | 15706 ft | 382 kts | 70° |
| 2026-05-01 12:15 | 37.43536 | 127.06507 | 16133 ft | 387 kts | 71° |
| 2026-05-01 12:15 | 37.44145 | 127.09836 | 16569 ft | 391 kts | 72° |
| 2026-05-01 12:15 | 37.44719 | 127.13186 | 17015 ft | 393 kts | 73° |
| 2026-05-01 12:16 | 37.45281 | 127.16576 | 17432 ft | 396 kts | 73° |
| 2026-05-01 12:16 | 37.45838 | 127.19994 | 17872 ft | 399 kts | 73° |
| 2026-05-01 12:16 | 37.46392 | 127.23397 | 18262 ft | 402 kts | 73° |
| 2026-05-01 12:16 | 37.46954 | 127.26863 | 18626 ft | 405 kts | 72° |
| 2026-05-01 12:17 | 37.47521 | 127.30357 | 18941 ft | 409 kts | 72° |
| 2026-05-01 12:17 | 37.48091 | 127.33871 | 19359 ft | 410 kts | 72° |
| 2026-05-01 12:17 | 37.48662 | 127.37402 | 19665 ft | 413 kts | 72° |
| 2026-05-01 12:17 | 37.49237 | 127.40961 | 19977 ft | 416 kts | 72° |
| 2026-05-01 12:18 | 37.49815 | 127.44552 | 20314 ft | 419 kts | 72° |
| 2026-05-01 12:18 | 37.50394 | 127.48160 | 20706 ft | 421 kts | 72° |
| 2026-05-01 12:18 | 37.50979 | 127.51803 | 20976 ft | 425 kts | 72° |
| 2026-05-01 12:18 | 37.51562 | 127.55445 | 21326 ft | 426 kts | 72° |
| 2026-05-01 12:19 | 37.52083 | 127.58702 | 21561 ft | 430 kts | 72° |
| 2026-05-01 12:19 | 37.52483 | 127.61205 | 21760 ft | 432 kts | 72° |
| 2026-05-01 12:19 | 37.53161 | 127.65470 | 22148 ft | 434 kts | 72° |
| 2026-05-01 12:20 | 37.54904 | 127.76462 | 23065 ft | 442 kts | 71° |
| 2026-05-01 12:20 | 37.55505 | 127.80269 | 23373 ft | 444 kts | 71° |
| 2026-05-01 12:20 | 37.56108 | 127.84093 | 23667 ft | 446 kts | 71° |
| 2026-05-01 12:21 | 37.56717 | 127.87955 | 23911 ft | 450 kts | 71° |
| 2026-05-01 12:21 | 37.57326 | 127.91831 | 24167 ft | 453 kts | 71° |
| 2026-05-01 12:21 | 37.57939 | 127.95743 | 24419 ft | 455 kts | 71° |
| 2026-05-01 12:21 | 37.58553 | 127.99672 | 24656 ft | 458 kts | 71° |
| 2026-05-01 12:22 | 37.59170 | 128.03636 | 24898 ft | 460 kts | 71° |
| 2026-05-01 12:22 | 37.59789 | 128.07603 | 25121 ft | 465 kts | 71° |
| 2026-05-01 12:22 | 37.60412 | 128.11615 | 25387 ft | 467 kts | 71° |
| 2026-05-01 12:22 | 37.61038 | 128.15658 | 25676 ft | 470 kts | 71° |
| 2026-05-01 12:23 | 37.61658 | 128.19674 | 25957 ft | 474 kts | 71° |
| 2026-05-01 12:23 | 37.62288 | 128.23776 | 26225 ft | 479 kts | 70° |
| 2026-05-01 12:23 | 37.62926 | 128.27910 | 26486 ft | 482 kts | 70° |
| 2026-05-01 12:23 | 37.63564 | 128.32068 | 26865 ft | 483 kts | 70° |
| 2026-05-01 12:24 | 37.64206 | 128.36246 | 27109 ft | 487 kts | 70° |
| 2026-05-01 12:24 | 37.64850 | 128.40465 | 27387 ft | 489 kts | 70° |
| 2026-05-01 12:24 | 37.65484 | 128.44651 | 27672 ft | 493 kts | 70° |
| 2026-05-01 12:24 | 37.66129 | 128.48924 | 27928 ft | 497 kts | 70° |
| 2026-05-01 12:25 | 37.66781 | 128.53239 | 28231 ft | 501 kts | 70° |
| 2026-05-01 12:25 | 37.68091 | 128.61935 | 28752 ft | 509 kts | 70° |
| 2026-05-01 12:25 | 37.68748 | 128.66339 | 29038 ft | 512 kts | 70° |
| 2026-05-01 12:26 | 37.69272 | 128.70819 | 29410 ft | 523 kts | 78° |
| 2026-05-01 12:26 | 37.68444 | 128.80190 | 29918 ft | 553 kts | 103° |
| 2026-05-01 12:26 | 37.67030 | 128.84737 | 30177 ft | 562 kts | 114° |
| 2026-05-01 12:27 | 37.65013 | 128.88948 | 30389 ft | 568 kts | 126° |
| 2026-05-01 12:27 | 37.60194 | 128.96889 | 30825 ft | 573 kts | 125° |
| 2026-05-01 12:28 | 37.55764 | 129.05284 | 31393 ft | 577 kts | 121° |
| 2026-05-01 12:28 | 37.53647 | 129.09605 | 31614 ft | 581 kts | 120° |
| 2026-05-01 12:28 | 37.49442 | 129.18326 | 32214 ft | 584 kts | 120° |
| 2026-05-01 12:29 | 37.47357 | 129.22648 | 32459 ft | 586 kts | 121° |
| 2026-05-01 12:29 | 37.45230 | 129.27047 | 32725 ft | 589 kts | 121° |
| 2026-05-01 12:29 | 37.40944 | 129.35886 | 33230 ft | 594 kts | 121° |
| 2026-05-01 12:30 | 37.36625 | 129.44774 | 33751 ft | 598 kts | 121° |
| 2026-05-01 12:30 | 37.34445 | 129.49250 | 33997 ft | 600 kts | 121° |
| 2026-05-01 12:30 | 37.32257 | 129.53739 | 34238 ft | 602 kts | 121° |
| 2026-05-01 12:31 | 37.30093 | 129.58171 | 34539 ft | 603 kts | 121° |
| 2026-05-01 12:31 | 37.27890 | 129.62674 | 34807 ft | 604 kts | 121° |
| 2026-05-01 12:31 | 37.25682 | 129.67184 | 34831 ft | 610 kts | 121° |
| 2026-05-01 12:32 | 37.21253 | 129.76210 | 34834 ft | 606 kts | 121° |
| 2026-05-01 12:32 | 37.14589 | 129.89745 | 34839 ft | 607 kts | 121° |
| 2026-05-01 12:33 | 37.10141 | 129.98747 | 34837 ft | 607 kts | 121° |
| 2026-05-01 12:33 | 37.05680 | 130.07752 | 34849 ft | 608 kts | 121° |
| 2026-05-01 12:34 | 37.01228 | 130.16715 | 34842 ft | 609 kts | 121° |
| 2026-05-01 12:34 | 36.96739 | 130.25729 | 34866 ft | 610 kts | 121° |
| 2026-05-01 12:35 | 36.92249 | 130.34719 | 34857 ft | 610 kts | 121° |
| 2026-05-01 12:35 | 36.87771 | 130.43661 | 34859 ft | 610 kts | 121° |
| 2026-05-01 12:36 | 36.83256 | 130.52654 | 34859 ft | 610 kts | 121° |
| 2026-05-01 12:36 | 36.78738 | 130.61628 | 34855 ft | 610 kts | 121° |
| 2026-05-01 12:37 | 36.74976 | 130.69084 | 34854 ft | 610 kts | 121° |
| 2026-05-01 12:37 | 36.70450 | 130.78032 | 34850 ft | 609 kts | 121° |
| 2026-05-01 12:38 | 36.65922 | 130.86962 | 34844 ft | 609 kts | 122° |
| 2026-05-01 12:38 | 36.61406 | 130.95846 | 34843 ft | 609 kts | 122° |
| 2026-05-01 12:39 | 36.56884 | 131.04716 | 34830 ft | 609 kts | 122° |
| 2026-05-01 12:39 | 36.52334 | 131.13618 | 34853 ft | 609 kts | 122° |
| 2026-05-01 12:40 | 36.47778 | 131.22510 | 34854 ft | 610 kts | 122° |
| 2026-05-01 12:40 | 36.43218 | 131.31386 | 34848 ft | 610 kts | 122° |
| 2026-05-01 12:41 | 36.38672 | 131.40223 | 34863 ft | 610 kts | 120° |
| 2026-05-01 12:41 | 36.36715 | 131.44940 | 34867 ft | 606 kts | 108° |
| 2026-05-01 12:41 | 36.35428 | 131.49829 | 34869 ft | 599 kts | 97° |
| 2026-05-01 12:42 | 36.34790 | 131.54885 | 34851 ft | 589 kts | 86° |
| 2026-05-01 12:42 | 36.34823 | 131.59900 | 34862 ft | 575 kts | 75° |
| 2026-05-01 12:42 | 36.35898 | 131.69653 | 34858 ft | 574 kts | 76° |
| 2026-05-01 12:43 | 36.36153 | 131.79640 | 34888 ft | 582 kts | 84° |
| 2026-05-01 12:43 | 36.35878 | 131.89688 | 34875 ft | 583 kts | 85° |
| 2026-05-01 12:44 | 36.35520 | 131.99715 | 34861 ft | 581 kts | 85° |
| 2026-05-01 12:45 | 36.34810 | 132.19691 | 34840 ft | 578 kts | 85° |
| 2026-05-01 12:45 | 36.34451 | 132.29571 | 34858 ft | 576 kts | 86° |
| 2026-05-01 12:46 | 36.34083 | 132.39484 | 34844 ft | 574 kts | 86° |
| 2026-05-01 12:46 | 36.33708 | 132.49362 | 34850 ft | 572 kts | 86° |
| 2026-05-01 12:47 | 36.33327 | 132.59161 | 34830 ft | 570 kts | 86° |
| 2026-05-01 12:47 | 36.32939 | 132.68973 | 34871 ft | 568 kts | 87° |
| 2026-05-01 12:48 | 36.32543 | 132.78746 | 34849 ft | 566 kts | 87° |
| 2026-05-01 12:48 | 36.32141 | 132.88484 | 34834 ft | 565 kts | 87° |
| 2026-05-01 12:49 | 36.31733 | 132.98200 | 34817 ft | 563 kts | 87° |
| 2026-05-01 12:49 | 36.31319 | 133.07853 | 34802 ft | 562 kts | 87° |
| 2026-05-01 12:50 | 36.30895 | 133.17547 | 34801 ft | 562 kts | 87° |
| 2026-05-01 12:50 | 36.30465 | 133.27233 | 34803 ft | 563 kts | 87° |
| 2026-05-01 12:51 | 36.30023 | 133.36964 | 34821 ft | 564 kts | 88° |
| 2026-05-01 12:52 | 36.29348 | 133.51528 | 34815 ft | 565 kts | 88° |
| 2026-05-01 12:52 | 36.28657 | 133.66048 | 34847 ft | 564 kts | 88° |
| 2026-05-01 12:53 | 36.27951 | 133.80590 | 34819 ft | 562 kts | 89° |
| 2026-05-01 12:54 | 36.27466 | 133.90245 | 34800 ft | 560 kts | 89° |
| 2026-05-01 12:54 | 36.26730 | 134.04695 | 34814 ft | 558 kts | 89° |
| 2026-05-01 12:55 | 36.25983 | 134.19023 | 34781 ft | 556 kts | 89° |
| 2026-05-01 12:56 | 36.25475 | 134.28578 | 34766 ft | 556 kts | 89° |
| 2026-05-01 12:56 | 36.24967 | 134.38142 | 34748 ft | 554 kts | 87° |
| 2026-05-01 12:56 | 36.25121 | 134.42882 | 34757 ft | 545 kts | 76° |
| 2026-05-01 12:57 | 36.25932 | 134.47426 | 34763 ft | 535 kts | 65° |
| 2026-05-01 12:57 | 36.29280 | 134.55417 | 34739 ft | 513 kts | 44° |
| 2026-05-01 12:57 | 36.31478 | 134.58880 | 34736 ft | 513 kts | 45° |
| 2026-05-01 12:58 | 36.35751 | 134.65988 | 34748 ft | 513 kts | 45° |
| 2026-05-01 12:59 | 36.42294 | 134.76426 | 34728 ft | 513 kts | 44° |
| 2026-05-01 12:59 | 36.48943 | 134.86870 | 34744 ft | 513 kts | 45° |
| 2026-05-01 13:00 | 36.55575 | 134.97327 | 34726 ft | 512 kts | 45° |
| 2026-05-01 13:01 | 36.62182 | 135.07773 | 34724 ft | 511 kts | 45° |
| 2026-05-01 13:02 | 36.68735 | 135.18164 | 34710 ft | 510 kts | 46° |
| 2026-05-01 13:07 | 37.16284 | 135.94561 | 34609 ft | 507 kts | 47° |
| 2026-05-01 13:08 | 37.20596 | 136.01578 | 34617 ft | 508 kts | 47° |
| 2026-05-01 13:08 | 37.24920 | 136.08627 | 34597 ft | 510 kts | 48° |
| 2026-05-01 13:09 | 37.29243 | 136.15691 | 34604 ft | 511 kts | 48° |
| 2026-05-01 13:09 | 37.33573 | 136.22782 | 34597 ft | 512 kts | 48° |
| 2026-05-01 13:10 | 37.37909 | 136.29898 | 34612 ft | 512 kts | 49° |
| 2026-05-01 13:10 | 37.42246 | 136.37030 | 34611 ft | 513 kts | 49° |
| 2026-05-01 13:11 | 37.46560 | 136.44137 | 34605 ft | 513 kts | 49° |
| 2026-05-01 13:11 | 37.50891 | 136.51291 | 34588 ft | 513 kts | 49° |
| 2026-05-01 13:12 | 37.55190 | 136.58405 | 34584 ft | 513 kts | 49° |
| 2026-05-01 13:12 | 37.59510 | 136.65568 | 34555 ft | 514 kts | 50° |
| 2026-05-01 13:13 | 37.63826 | 136.72743 | 34554 ft | 514 kts | 50° |
| 2026-05-01 13:13 | 37.68143 | 136.79931 | 34566 ft | 514 kts | 51° |
| 2026-05-01 13:14 | 37.72467 | 136.87151 | 34543 ft | 515 kts | 50° |
| 2026-05-01 13:14 | 37.76791 | 136.94385 | 34544 ft | 516 kts | 50° |
| 2026-05-01 13:15 | 37.81122 | 137.01646 | 34528 ft | 517 kts | 51° |
| 2026-05-01 13:15 | 37.85454 | 137.08925 | 34522 ft | 518 kts | 51° |
| 2026-05-01 13:16 | 37.89764 | 137.16183 | 34520 ft | 519 kts | 51° |
| 2026-05-01 13:16 | 37.94106 | 137.23510 | 34531 ft | 519 kts | 52° |
| 2026-05-01 13:17 | 38.02771 | 137.38184 | 34529 ft | 521 kts | 52° |
| 2026-05-01 13:18 | 38.09290 | 137.49268 | 34493 ft | 523 kts | 52° |
| 2026-05-01 13:18 | 38.13637 | 137.56680 | 34515 ft | 523 kts | 52° |
| 2026-05-01 13:19 | 38.17982 | 137.64101 | 34533 ft | 521 kts | 52° |
| 2026-05-01 13:20 | 38.24457 | 137.75198 | 34516 ft | 519 kts | 52° |
| 2026-05-01 13:20 | 38.28731 | 137.82542 | 34460 ft | 519 kts | 52° |
| 2026-05-01 13:21 | 38.34471 | 137.92431 | 34491 ft | 517 kts | 52° |
| 2026-05-01 13:21 | 38.38733 | 137.99793 | 34427 ft | 519 kts | 52° |
| 2026-05-01 13:22 | 38.43010 | 138.07195 | 34475 ft | 518 kts | 52° |
| 2026-05-01 13:22 | 38.47290 | 138.14622 | 34423 ft | 519 kts | 53° |
| 2026-05-01 13:23 | 38.51530 | 138.21998 | 34430 ft | 519 kts | 52° |
| 2026-05-01 13:23 | 38.55814 | 138.29464 | 34453 ft | 520 kts | 53° |
| 2026-05-01 13:24 | 38.60100 | 138.36951 | 34425 ft | 521 kts | 53° |
| 2026-05-01 13:25 | 38.66486 | 138.48143 | 34467 ft | 519 kts | 53° |
| 2026-05-01 13:25 | 38.70749 | 138.55634 | 34411 ft | 519 kts | 53° |
| 2026-05-01 13:26 | 38.74964 | 138.63058 | 34436 ft | 518 kts | 54° |
| 2026-05-01 13:26 | 38.79202 | 138.70540 | 34399 ft | 518 kts | 54° |
| 2026-05-01 13:27 | 38.83423 | 138.78009 | 34383 ft | 517 kts | 54° |
| 2026-05-01 13:27 | 38.89744 | 138.89244 | 34432 ft | 516 kts | 54° |
| 2026-05-01 13:28 | 38.96031 | 139.00457 | 34379 ft | 518 kts | 55° |
| 2026-05-01 13:29 | 39.04453 | 139.15542 | 34384 ft | 519 kts | 55° |
| 2026-05-01 13:31 | 39.17069 | 139.38272 | 34421 ft | 519 kts | 56° |
| 2026-05-01 13:32 | 39.27483 | 139.57157 | 34410 ft | 517 kts | 56° |
| 2026-05-01 13:33 | 39.37866 | 139.76097 | 34383 ft | 515 kts | 56° |
| 2026-05-01 13:34 | 39.46115 | 139.91224 | 34384 ft | 516 kts | 57° |
| 2026-05-01 13:35 | 39.52324 | 140.02656 | 34369 ft | 519 kts | 58° |
| 2026-05-01 13:36 | 39.58540 | 140.14148 | 34399 ft | 523 kts | 58° |
| 2026-05-01 13:36 | 39.64816 | 140.25789 | 34405 ft | 527 kts | 59° |
| 2026-05-01 13:37 | 39.69022 | 140.33616 | 34426 ft | 529 kts | 59° |
| 2026-05-01 13:37 | 39.73243 | 140.41489 | 34416 ft | 531 kts | 59° |
| 2026-05-01 13:38 | 39.79576 | 140.53336 | 34421 ft | 532 kts | 59° |
| 2026-05-01 13:39 | 39.83794 | 140.61254 | 34414 ft | 532 kts | 59° |
| 2026-05-01 13:39 | 39.87985 | 140.69135 | 34391 ft | 532 kts | 60° |
| 2026-05-01 13:40 | 39.92193 | 140.77072 | 34377 ft | 531 kts | 61° |
| 2026-05-01 13:40 | 39.96389 | 140.85010 | 34373 ft | 531 kts | 61° |
| 2026-05-01 13:41 | 40.00549 | 140.92894 | 34336 ft | 531 kts | 62° |
| 2026-05-01 13:41 | 40.04737 | 141.00858 | 34327 ft | 531 kts | 62° |
| 2026-05-01 13:42 | 40.08926 | 141.08840 | 34307 ft | 532 kts | 63° |
| 2026-05-01 13:42 | 40.13081 | 141.16776 | 34301 ft | 533 kts | 63° |
| 2026-05-01 13:43 | 40.17270 | 141.24802 | 34310 ft | 535 kts | 63° |
| 2026-05-01 13:43 | 40.21463 | 141.32850 | 34287 ft | 537 kts | 64° |
| 2026-05-01 13:44 | 40.25675 | 141.40961 | 34313 ft | 540 kts | 64° |
| 2026-05-01 13:44 | 40.29908 | 141.49132 | 34331 ft | 542 kts | 64° |
| 2026-05-01 13:45 | 40.34157 | 141.57348 | 34313 ft | 545 kts | 66° |
| 2026-05-01 13:45 | 40.38409 | 141.65604 | 34337 ft | 547 kts | 65° |
| 2026-05-01 13:46 | 40.42645 | 141.73842 | 34342 ft | 548 kts | 66° |
| 2026-05-01 13:46 | 40.46908 | 141.82153 | 34345 ft | 548 kts | 66° |
| 2026-05-01 13:47 | 40.51160 | 141.90467 | 34345 ft | 548 kts | 66° |
| 2026-05-01 13:47 | 40.55409 | 141.98797 | 34302 ft | 547 kts | 66° |
| 2026-05-01 13:48 | 40.59632 | 142.07102 | 34313 ft | 546 kts | 66° |
| 2026-05-01 13:48 | 40.63858 | 142.15434 | 34314 ft | 546 kts | 67° |
| 2026-05-01 13:49 | 40.68042 | 142.23706 | 34300 ft | 546 kts | 67° |
| 2026-05-01 13:49 | 40.72251 | 142.32049 | 34320 ft | 547 kts | 67° |
| 2026-05-01 13:50 | 40.76461 | 142.40415 | 34328 ft | 547 kts | 67° |
| 2026-05-01 13:50 | 40.80676 | 142.48814 | 34305 ft | 548 kts | 67° |
| 2026-05-01 13:51 | 40.84880 | 142.57215 | 34322 ft | 549 kts | 67° |
| 2026-05-01 13:51 | 40.89091 | 142.65653 | 34338 ft | 550 kts | 67° |
| 2026-05-01 13:52 | 40.93263 | 142.74036 | 34360 ft | 549 kts | 66° |
| 2026-05-01 13:52 | 40.97475 | 142.82520 | 34364 ft | 550 kts | 66° |
| 2026-05-01 13:53 | 41.01667 | 142.90988 | 34358 ft | 549 kts | 66° |
| 2026-05-01 13:53 | 41.07915 | 143.03654 | 34361 ft | 549 kts | 66° |
| 2026-05-01 13:54 | 41.12091 | 143.12147 | 34368 ft | 549 kts | 66° |
| 2026-05-01 13:54 | 41.16271 | 143.20677 | 34369 ft | 554 kts | 66° |
| 2026-05-01 13:55 | 41.20506 | 143.29355 | 34381 ft | 563 kts | 66° |
| 2026-05-01 13:55 | 41.24746 | 143.38038 | 34381 ft | 562 kts | 66° |
| 2026-05-01 13:56 | 41.29021 | 143.46837 | 34392 ft | 569 kts | 66° |
| 2026-05-01 13:56 | 41.33308 | 143.55675 | 34401 ft | 569 kts | 66° |
| 2026-05-01 13:57 | 41.36878 | 143.63055 | 34408 ft | 568 kts | 66° |
| 2026-05-01 13:57 | 41.41854 | 143.73378 | 34398 ft | 569 kts | 66° |
| 2026-05-01 13:58 | 41.46125 | 143.82267 | 34413 ft | 570 kts | 66° |
| 2026-05-01 13:58 | 41.50398 | 143.91187 | 34431 ft | 571 kts | 66° |
| 2026-05-01 13:59 | 41.54671 | 144.00131 | 34442 ft | 572 kts | 66° |
| 2026-05-01 13:59 | 41.58945 | 144.09104 | 34454 ft | 572 kts | 66° |
| 2026-05-01 14:00 | 41.63181 | 144.18023 | 34465 ft | 572 kts | 66° |
| 2026-05-01 14:00 | 41.67438 | 144.27012 | 34465 ft | 572 kts | 66° |
| 2026-05-01 14:01 | 41.71690 | 144.36019 | 34473 ft | 571 kts | 66° |
| 2026-05-01 14:01 | 41.75927 | 144.45020 | 34455 ft | 571 kts | 66° |
| 2026-05-01 14:02 | 41.80137 | 144.53993 | 34467 ft | 571 kts | 66° |
| 2026-05-01 14:02 | 41.84369 | 144.63039 | 34475 ft | 572 kts | 66° |
| 2026-05-01 14:03 | 41.88606 | 144.72121 | 34478 ft | 574 kts | 66° |
| 2026-05-01 14:03 | 41.92840 | 144.81226 | 34522 ft | 575 kts | 66° |
| 2026-05-01 14:04 | 41.97053 | 144.90311 | 34493 ft | 577 kts | 66° |
| 2026-05-01 14:04 | 42.00586 | 144.97952 | 34520 ft | 579 kts | 66° |
| 2026-05-01 14:05 | 42.05567 | 145.08758 | 34560 ft | 582 kts | 66° |
| 2026-05-01 14:05 | 42.09837 | 145.18050 | 34576 ft | 583 kts | 66° |
| 2026-05-01 14:06 | 42.14104 | 145.27365 | 34585 ft | 584 kts | 66° |
| 2026-05-01 14:06 | 42.18340 | 145.36642 | 34607 ft | 584 kts | 66° |
| 2026-05-01 14:07 | 42.22600 | 145.46001 | 34610 ft | 585 kts | 66° |
| 2026-05-01 14:08 | 42.28258 | 145.58478 | 34626 ft | 585 kts | 66° |
| 2026-05-01 14:08 | 42.32497 | 145.67860 | 34610 ft | 586 kts | 66° |
| 2026-05-01 14:09 | 42.36740 | 145.77281 | 34636 ft | 587 kts | 66° |
| 2026-05-01 14:09 | 42.40991 | 145.86748 | 34657 ft | 588 kts | 66° |
| 2026-05-01 14:10 | 42.45230 | 145.96220 | 34655 ft | 589 kts | 66° |
| 2026-05-01 14:10 | 42.49444 | 146.05665 | 34679 ft | 590 kts | 66° |
| 2026-05-01 14:11 | 42.53687 | 146.15207 | 34701 ft | 591 kts | 66° |
| 2026-05-01 14:11 | 42.60046 | 146.29562 | 34716 ft | 592 kts | 65° |
| 2026-05-01 14:12 | 42.64277 | 146.39155 | 34743 ft | 592 kts | 66° |
| 2026-05-01 14:12 | 42.68472 | 146.48696 | 34768 ft | 590 kts | 65° |
| 2026-05-01 14:13 | 42.72674 | 146.58280 | 34757 ft | 589 kts | 65° |
| 2026-05-01 14:13 | 42.76860 | 146.67862 | 34758 ft | 587 kts | 65° |
| 2026-05-01 14:14 | 42.81025 | 146.77429 | 34757 ft | 586 kts | 65° |
| 2026-05-01 14:14 | 42.85144 | 146.86919 | 34755 ft | 585 kts | 65° |
| 2026-05-01 14:15 | 42.89273 | 146.96465 | 34752 ft | 584 kts | 65° |
| 2026-05-01 14:15 | 42.93387 | 147.06008 | 34783 ft | 582 kts | 64° |
| 2026-05-01 14:16 | 42.97478 | 147.15526 | 34783 ft | 580 kts | 64° |
| 2026-05-01 14:16 | 43.01529 | 147.24983 | 34801 ft | 580 kts | 64° |
| 2026-05-01 14:17 | 43.05603 | 147.34525 | 34789 ft | 580 kts | 64° |
| 2026-05-01 14:17 | 43.09670 | 147.44079 | 34801 ft | 580 kts | 64° |
| 2026-05-01 14:18 | 43.13697 | 147.53574 | 34799 ft | 581 kts | 64° |
| 2026-05-01 14:18 | 43.17098 | 147.61615 | 34793 ft | 582 kts | 64° |
| 2026-05-01 14:19 | 43.21817 | 147.72810 | 34812 ft | 584 kts | 64° |
| 2026-05-01 14:19 | 43.25875 | 147.82474 | 34836 ft | 585 kts | 63° |
| 2026-05-01 14:20 | 43.31961 | 147.97021 | 34867 ft | 586 kts | 63° |
| 2026-05-01 14:21 | 43.36020 | 148.06764 | 34869 ft | 586 kts | 64° |
| 2026-05-01 14:21 | 43.40031 | 148.16428 | 34878 ft | 586 kts | 63° |
| 2026-05-01 14:22 | 43.46073 | 148.31043 | 34883 ft | 585 kts | 63° |
| 2026-05-01 14:22 | 43.50085 | 148.40791 | 34861 ft | 585 kts | 63° |
| 2026-05-01 14:23 | 43.54088 | 148.50548 | 34872 ft | 585 kts | 63° |
| 2026-05-01 14:23 | 43.58062 | 148.60269 | 34882 ft | 585 kts | 63° |
| 2026-05-01 14:24 | 43.62055 | 148.70068 | 34891 ft | 585 kts | 63° |
| 2026-05-01 14:24 | 43.66037 | 148.79876 | 34903 ft | 585 kts | 63° |
| 2026-05-01 14:25 | 43.70011 | 148.89696 | 34911 ft | 585 kts | 63° |
| 2026-05-01 14:25 | 43.73986 | 148.99553 | 34908 ft | 586 kts | 62° |
| 2026-05-01 14:26 | 43.79904 | 149.14291 | 34920 ft | 587 kts | 63° |
| 2026-05-01 14:27 | 43.83865 | 149.24199 | 34920 ft | 587 kts | 62° |
| 2026-05-01 14:27 | 43.87819 | 149.34123 | 34926 ft | 588 kts | 62° |
| 2026-05-01 14:28 | 43.93733 | 149.49031 | 34938 ft | 588 kts | 62° |
| 2026-05-01 14:28 | 43.97652 | 149.58956 | 34942 ft | 589 kts | 62° |
| 2026-05-01 14:29 | 44.01586 | 149.68953 | 34950 ft | 589 kts | 63° |
| 2026-05-01 14:30 | 44.09394 | 149.88900 | 34958 ft | 588 kts | 62° |
| 2026-05-01 14:31 | 44.15230 | 150.03901 | 34965 ft | 587 kts | 63° |
| 2026-05-01 14:31 | 44.19108 | 150.13916 | 34939 ft | 587 kts | 62° |
| 2026-05-01 14:32 | 44.22947 | 150.23862 | 34962 ft | 587 kts | 62° |
| 2026-05-01 14:32 | 44.26812 | 150.33914 | 34978 ft | 587 kts | 62° |
| 2026-05-01 14:33 | 44.30678 | 150.44003 | 34981 ft | 588 kts | 62° |
| 2026-05-01 14:33 | 44.34508 | 150.54034 | 34984 ft | 589 kts | 62° |
| 2026-05-01 14:34 | 44.38353 | 150.64142 | 34996 ft | 589 kts | 62° |
| 2026-05-01 14:34 | 44.42193 | 150.74276 | 35006 ft | 589 kts | 62° |
| 2026-05-01 14:35 | 44.46030 | 150.84436 | 35009 ft | 589 kts | 62° |
| 2026-05-01 14:35 | 44.49846 | 150.94576 | 35011 ft | 588 kts | 62° |
| 2026-05-01 14:36 | 44.53650 | 151.04726 | 35012 ft | 588 kts | 61° |
| 2026-05-01 14:36 | 44.57419 | 151.14815 | 35015 ft | 587 kts | 61° |
| 2026-05-01 14:37 | 44.61204 | 151.24984 | 35014 ft | 587 kts | 62° |
| 2026-05-01 14:37 | 44.64976 | 151.35162 | 35004 ft | 587 kts | 61° |
| 2026-05-01 14:38 | 44.68738 | 151.45344 | 35009 ft | 587 kts | 61° |
| 2026-05-01 14:38 | 44.72484 | 151.55521 | 35005 ft | 588 kts | 61° |
| 2026-05-01 14:39 | 44.76231 | 151.65741 | 35018 ft | 588 kts | 61° |
| 2026-05-01 14:39 | 44.79980 | 151.76003 | 35026 ft | 589 kts | 61° |
| 2026-05-01 14:40 | 44.83694 | 151.86206 | 35030 ft | 589 kts | 61° |
| 2026-05-01 14:40 | 44.87422 | 151.96488 | 35043 ft | 590 kts | 61° |
| 2026-05-01 14:41 | 44.91154 | 152.06820 | 35041 ft | 590 kts | 61° |
| 2026-05-01 14:41 | 44.94876 | 152.17165 | 35048 ft | 591 kts | 61° |
| 2026-05-01 14:42 | 44.98590 | 152.27528 | 35063 ft | 591 kts | 60° |
| 2026-05-01 14:42 | 45.02273 | 152.37838 | 35061 ft | 591 kts | 60° |
| 2026-05-01 14:43 | 45.05969 | 152.48229 | 35061 ft | 591 kts | 60° |
| 2026-05-01 14:43 | 45.09654 | 152.58626 | 35058 ft | 590 kts | 61° |
| 2026-05-01 14:44 | 45.13322 | 152.69019 | 35059 ft | 590 kts | 61° |
| 2026-05-01 14:44 | 45.18783 | 152.84563 | 35057 ft | 589 kts | 61° |
| 2026-05-01 14:45 | 45.24249 | 153.00210 | 35068 ft | 589 kts | 60° |
| 2026-05-01 14:46 | 45.27869 | 153.10625 | 35072 ft | 589 kts | 60° |
| 2026-05-01 14:46 | 45.33293 | 153.26309 | 35076 ft | 589 kts | 60° |
| 2026-05-01 14:47 | 45.36874 | 153.36710 | 35073 ft | 589 kts | 60° |
| 2026-05-01 14:48 | 45.42261 | 153.52439 | 35090 ft | 589 kts | 60° |
| 2026-05-01 14:48 | 45.47633 | 153.68212 | 35086 ft | 589 kts | 60° |
| 2026-05-01 14:49 | 45.54722 | 153.89178 | 35102 ft | 588 kts | 59° |
| 2026-05-01 14:50 | 45.61800 | 154.10277 | 35103 ft | 588 kts | 60° |
| 2026-05-01 14:51 | 45.67074 | 154.26110 | 35100 ft | 589 kts | 59° |
| 2026-05-01 14:52 | 45.72319 | 154.41949 | 35098 ft | 590 kts | 59° |
| 2026-05-01 14:53 | 45.77571 | 154.57907 | 35110 ft | 591 kts | 59° |
| 2026-05-01 14:53 | 45.81061 | 154.68566 | 35120 ft | 591 kts | 59° |
| 2026-05-01 14:54 | 45.84548 | 154.79261 | 35118 ft | 591 kts | 59° |
| 2026-05-01 14:54 | 45.88021 | 154.89956 | 35123 ft | 591 kts | 59° |
| 2026-05-01 14:55 | 45.91470 | 155.00619 | 35124 ft | 591 kts | 59° |
| 2026-05-01 14:55 | 45.94928 | 155.11356 | 35125 ft | 591 kts | 59° |
| 2026-05-01 14:56 | 45.97792 | 155.20283 | 35150 ft | 590 kts | 59° |
| 2026-05-01 14:56 | 46.01227 | 155.31032 | 35136 ft | 589 kts | 59° |
| 2026-05-01 14:57 | 46.04611 | 155.41662 | 35129 ft | 587 kts | 59° |
| 2026-05-01 14:57 | 46.09695 | 155.57718 | 35134 ft | 585 kts | 59° |
| 2026-05-01 14:58 | 46.13058 | 155.68394 | 35119 ft | 584 kts | 59° |
| 2026-05-01 14:58 | 46.16411 | 155.79084 | 35117 ft | 583 kts | 59° |
| 2026-05-01 14:59 | 46.19722 | 155.89681 | 35122 ft | 583 kts | 59° |
| 2026-05-01 14:59 | 46.23046 | 156.00366 | 35121 ft | 583 kts | 59° |
| 2026-05-01 15:00 | 46.28023 | 156.16447 | 35151 ft | 584 kts | 59° |
| 2026-05-01 15:01 | 46.31327 | 156.27181 | 35144 ft | 584 kts | 59° |
| 2026-05-01 15:01 | 46.34624 | 156.37939 | 35144 ft | 584 kts | 59° |
| 2026-05-01 15:02 | 46.37893 | 156.48651 | 35147 ft | 584 kts | 59° |
| 2026-05-01 15:02 | 46.41175 | 156.59451 | 35151 ft | 584 kts | 58° |
| 2026-05-01 15:03 | 46.44446 | 156.70258 | 35169 ft | 585 kts | 59° |
| 2026-05-01 15:03 | 46.47706 | 156.81077 | 35148 ft | 586 kts | 59° |
| 2026-05-01 15:04 | 46.50945 | 156.91879 | 35166 ft | 586 kts | 58° |
| 2026-05-01 15:04 | 46.54185 | 157.02724 | 35168 ft | 585 kts | 58° |
| 2026-05-01 15:05 | 46.57416 | 157.13588 | 35161 ft | 585 kts | 58° |
| 2026-05-01 15:05 | 46.60631 | 157.24453 | 35164 ft | 584 kts | 58° |
| 2026-05-01 15:06 | 46.63833 | 157.35314 | 35163 ft | 584 kts | 58° |
| 2026-05-01 15:06 | 46.67026 | 157.46192 | 35162 ft | 583 kts | 58° |
| 2026-05-01 15:07 | 46.70179 | 157.56984 | 35182 ft | 583 kts | 58° |
| 2026-05-01 15:07 | 46.73352 | 157.67888 | 35178 ft | 583 kts | 58° |
| 2026-05-01 15:08 | 46.76505 | 157.78774 | 35181 ft | 583 kts | 58° |
| 2026-05-01 15:08 | 46.79654 | 157.89691 | 35185 ft | 583 kts | 58° |
| 2026-05-01 15:09 | 46.82788 | 158.00615 | 35188 ft | 583 kts | 57° |
| 2026-05-01 15:09 | 46.85890 | 158.11466 | 35192 ft | 582 kts | 57° |
| 2026-05-01 15:10 | 46.89001 | 158.22399 | 35183 ft | 582 kts | 57° |
| 2026-05-01 15:10 | 46.93647 | 158.38823 | 35199 ft | 582 kts | 57° |
| 2026-05-01 15:11 | 46.98242 | 158.55180 | 35202 ft | 581 kts | 57° |
| 2026-05-01 15:12 | 47.01303 | 158.66138 | 35216 ft | 580 kts | 57° |
| 2026-05-01 15:12 | 47.05860 | 158.82541 | 35207 ft | 578 kts | 57° |
| 2026-05-01 15:14 | 47.13386 | 159.09883 | 35218 ft | 576 kts | 56° |
| 2026-05-01 15:14 | 47.17850 | 159.26248 | 35209 ft | 575 kts | 57° |
| 2026-05-01 15:15 | 47.23761 | 159.48093 | 35201 ft | 575 kts | 57° |
| 2026-05-01 15:16 | 47.29620 | 159.69948 | 35220 ft | 575 kts | 57° |
| 2026-05-01 15:18 | 47.36906 | 159.97421 | 35238 ft | 574 kts | 57° |
| 2026-05-01 15:19 | 47.42653 | 160.19319 | 35268 ft | 572 kts | 57° |
| 2026-05-01 15:19 | 47.46914 | 160.35694 | 35242 ft | 570 kts | 57° |
| 2026-05-01 15:20 | 47.51156 | 160.52105 | 35267 ft | 568 kts | 57° |
| 2026-05-01 15:21 | 47.53968 | 160.63054 | 35246 ft | 567 kts | 57° |
| 2026-05-01 15:21 | 47.56739 | 160.73891 | 35241 ft | 565 kts | 57° |
| 2026-05-01 15:22 | 47.60897 | 160.90249 | 35262 ft | 563 kts | 58° |
| 2026-05-01 15:22 | 47.63643 | 161.01118 | 35249 ft | 562 kts | 58° |
| 2026-05-01 15:23 | 47.66359 | 161.11919 | 35233 ft | 561 kts | 58° |
| 2026-05-01 15:23 | 47.69074 | 161.22767 | 35260 ft | 560 kts | 58° |
| 2026-05-01 15:24 | 47.71777 | 161.33623 | 35241 ft | 559 kts | 58° |
| 2026-05-01 15:24 | 47.74456 | 161.44432 | 35228 ft | 558 kts | 58° |
| 2026-05-01 15:25 | 47.77111 | 161.55195 | 35222 ft | 557 kts | 58° |
| 2026-05-01 15:25 | 47.79767 | 161.66010 | 35249 ft | 556 kts | 59° |
| 2026-05-01 15:26 | 47.82407 | 161.76822 | 35232 ft | 555 kts | 59° |
| 2026-05-01 15:26 | 47.85020 | 161.87572 | 35225 ft | 554 kts | 59° |
| 2026-05-01 15:27 | 47.87635 | 161.98373 | 35263 ft | 554 kts | 59° |
| 2026-05-01 15:28 | 47.91531 | 162.14583 | 35238 ft | 553 kts | 59° |
| 2026-05-01 15:28 | 47.94115 | 162.25396 | 35239 ft | 552 kts | 60° |
| 2026-05-01 15:29 | 47.97960 | 162.41583 | 35254 ft | 551 kts | 60° |
| 2026-05-01 15:30 | 48.03024 | 162.63098 | 35230 ft | 549 kts | 60° |
| 2026-05-01 15:31 | 48.10538 | 162.95406 | 35228 ft | 547 kts | 60° |
| 2026-05-01 15:32 | 48.15465 | 163.16860 | 35216 ft | 546 kts | 61° |
| 2026-05-01 15:34 | 48.22794 | 163.49170 | 35213 ft | 547 kts | 61° |